Laurent Verva

Laurent Verva

Statistiques 2026

  • Courses courues : 42
  • Nb de victoires : -
  • Nb de places : 1
  • Écart gagnant : 143
  • Réussite à la gagne : -
  • Réussite à la place : 2%
Musique : 0a 8a 4a 6a 6a 0a 5a 5a Da 2a 9a 6a 5a Da 6a 0a 7a 4a
DateRangCatégorieAlloc.Dist.HippodromeChevalRed. KmSpé.
09/06/24 1 Trot 21 000€ 2 850m Laon Impress Me 1'15"0 Attelé
05/08/24 5 Trot 21 000€ 2 850m Mauquenchy Kerdyna Match 1'16"3 Attelé
05/08/24 0 Trot 30 000€ 2 850m Mauquenchy Hibiscus des Baux Attelé lire

N'a pu que figurer au sein du peloton.

21/08/24 0 Trot 60 000€ 2 850m Vincennes Javerne Attelé lire

N'a pu que figurer au sein du peloton.

06/09/24 0 Trot 46 000€ 2 850m Vincennes Jasmine d'Ouilly Attelé lire

N'a joué aucun rôle utile.

29/09/24 D Trot 12 000€ 2 850m Laon Lipton Tonic Attelé
29/09/24 7 Trot 12 000€ 2 850m Laon Le Vent du Houlet 1'21"1 Attelé
29/09/24 7 Trot 12 000€ 2 850m Laon Kiss Me Mencourt 1'19"6 Attelé
29/09/24 D Trot 12 000€ 2 850m Laon Keny Love de Rem Attelé
29/09/24 9 Trot 12 000€ 2 850m Laon Lily Rose du Ganep 1'23"8 Attelé
29/09/24 2 Trot 12 000€ 2 850m Laon Lacouma 1'19"6 Attelé
29/09/24 5 Trot 12 000€ 2 850m Laon Koblack Sautreuil 1'18"6 Attelé
13/10/24 D Trot 14 500€ 2 850m Laon Lipton Tonic Attelé
13/10/24 5 Trot 14 500€ 2 850m Laon Love With You 1'19"4 Attelé
17/11/24 2 Trot 15 000€ 2 850m Mauquenchy Kapitan Ter Blekte Attelé
17/11/24 2 Trot 15 000€ 2 850m Mauquenchy Karlo 1'15"4 Attelé
17/11/24 4 Trot 15 000€ 2 850m Mauquenchy Kiss Me Mencourt 1'15"6 Attelé
17/11/24 1 Trot 15 000€ 2 850m Mauquenchy La Callas 1'17"7 Attelé
22/11/24 0 Trot 19 000€ 2 850m Mauquenchy Hooker du Pech Attelé
22/11/24 9 Trot 17 500€ 2 850m Mauquenchy Jivaso Efbe 1'18"8 Attelé
13/01/25 0 Trot 21 000€ 2 875m Mauquenchy Khitara Attelé
13/01/25 D Trot 24 000€ 2 850m Mauquenchy Hercule de Bea Attelé lire

Longtemps sur une cinquième ligne, s'est montré fautif pour finir.

01/05/25 7 Trot 14 500€ 2 850m Laon Maestro Castelets 1'19"4 Attelé
01/05/25 6 Trot 24 000€ 2 850m Laon Hercule de Bea 1'15"0 Attelé
01/05/25 D Trot 13 500€ 2 850m Laon Label Daddy Attelé
08/06/25 8 Trot 21 000€ 2 850m Laon Jerimow 1'16"8 Attelé
08/06/25 D Trot 14 500€ 2 850m Laon Lola d'Abbemont Attelé
08/06/25 3 Trot 14 500€ 2 850m Laon Majeste Desbois 1'20"0 Attelé
06/08/25 7 Trot 28 000€ 2 875m Mauquenchy Hilton du Houlet 1'15"5 Attelé
28/09/25 5 Trot 12 000€ 2 850m Laon Maestro du Val 1'19"6 Attelé
28/09/25 0 Trot 12 000€ 2 850m Laon Lily Rose du Ganep Attelé
28/09/25 6 Trot 12 000€ 2 850m Laon Madeleine Renka 1'18"7 Attelé
28/09/25 7 Trot 12 000€ 2 850m Laon Myrtille des Ecus 1'19"5 Attelé
28/09/25 0 Trot 12 000€ 2 850m Laon Look Gececa Attelé
28/09/25 7 Trot 12 000€ 2 850m Laon Label Daddy 1'19"4 Attelé
12/01/26 7 Trot 21 000€ 2 850m Mauquenchy Kiss Me Mencourt 1'18"6 Attelé
01/05/26 6 Trot 14 500€ 2 850m Laon Napoleon de Nieles 1'18"7 Attelé
01/05/26 6 Trot 13 500€ 2 850m Laon Mascotte du Val 1'21"2 Attelé
01/05/26 4 Trot 24 000€ 2 850m Laon Ivajale 1'14"6 Attelé
06/10/20 7 Trot 29 000€ 2 850m Vincennes Heroica 1'16"2 Attelé
25/10/20 9 Trot 12 000€ 2 850m Mauquenchy Gabriela du Toulay 1'19"6 Attelé
25/10/20 4 Trot 12 000€ 2 850m Mauquenchy Gladys de Tillard 1'18"4 Attelé
04/10/20 3 Trot 12 000€ 2 850m Laon Gossyboy d'Onot 1'19"6 Attelé
04/10/20 D Trot 12 000€ 2 850m Laon Hina Cal Attelé
04/10/20 4 Trot 12 000€ 2 850m Laon Hippie du Toulay 1'21"1 Attelé
04/10/20 3 Trot 12 000€ 2 850m Laon Gelina de Piquet 1'18"7 Attelé
04/10/20 5 Trot 12 000€ 2 850m Laon Guess Mencourt 1'19"2 Attelé
04/10/20 7 Trot 12 000€ 2 850m Laon Hussard du Vallon 1'21"6 Attelé
04/10/20 5 Trot 12 000€ 2 850m Laon Haoussa de Vennes 1'20"7 Attelé
16/01/23 2 Trot 20 000€ 2 850m Mauquenchy J'Adore Blue 1'16"4 Attelé